Terminal Aerodrome Forecast
Issued by NWS Portland, OR

Home | Current Version | Previous Version | Text Only | Print | Product List | Glossary On
Versions: 1 2 3 4 5 6 7 8 9 10 11 12 13 14 15 16 17 18 19 20 21 22 23 24 25 26 27 28 29 30 31 32 33 34 35 36 37 38 39 40 41 42 43 44
000
FTUS46 KPQR 262337
TAFAST
TAF
KAST 262337Z 2700/2724 26012KT P6SM -SHRA SCT020 BKN040
     FM270400 26008KT P6SM VCSH SCT025 BKN050
     FM270800 23006KT P6SM SCT020 BKN040
     FM271600 29011KT P6SM -SHRA SCT025 BKN040=

USA.gov is the U.S. government's official web portal to all federal, state and local government web resources and services.